createdAt,value
2022-09-23T00:00:24.784Z,2.37
2022-09-23T00:03:29.103Z,2.60
2022-09-23T00:06:31.680Z,2.42
2022-09-23T00:09:34.743Z,2.53
2022-09-23T00:12:37.395Z,2.70
2022-09-23T00:15:40.331Z,2.62
2022-09-23T00:18:43.533Z,2.97
2022-09-23T00:21:46.257Z,2.70
2022-09-23T00:24:49.221Z,2.27
2022-09-23T00:27:52.070Z,2.67
2022-09-23T00:30:54.721Z,2.33
2022-09-23T00:34:01.688Z,2.45
2022-09-23T00:37:04.341Z,2.65
2022-09-23T00:40:08.946Z,2.33
2022-09-23T00:43:17.547Z,2.15
2022-09-23T00:46:40.463Z,2.30
2022-09-23T00:49:44.865Z,2.20
2022-09-23T00:52:49.157Z,2.12
2022-09-23T00:55:55.431Z,1.90
2022-09-23T00:58:58.731Z,1.95
2022-09-23T01:02:02.727Z,1.77
2022-09-23T01:05:07.463Z,2.37
2022-09-23T01:08:11.619Z,2.70
2022-09-23T01:11:23.606Z,2.20
2022-09-23T01:14:47.710Z,2.35
2022-09-23T01:18:15.230Z,2.00
2022-09-23T01:22:05.036Z,1.80
2022-09-23T01:25:40.839Z,2.20
2022-09-23T01:28:43.262Z,2.60
2022-09-23T01:31:55.306Z,2.62
2022-09-23T01:34:57.828Z,2.15
2022-09-23T01:38:06.547Z,2.08
2022-09-23T01:41:21.487Z,2.25
2022-09-23T01:44:30.957Z,2.20
2022-09-23T01:47:37.753Z,2.08
2022-09-23T01:50:58.860Z,2.20
2022-09-23T01:54:07.443Z,2.20
2022-09-23T01:57:18.865Z,2.90
2022-09-23T02:00:23.163Z,1.97
2022-09-23T02:03:32.385Z,2.35
2022-09-23T02:06:42.656Z,1.92
2022-09-23T02:09:49.468Z,2.00
2022-09-23T02:12:57.350Z,2.00
2022-09-23T02:16:04.996Z,2.00
2022-09-23T02:19:11.653Z,1.90
2022-09-23T02:22:24.105Z,2.00
2022-09-23T02:25:34.037Z,1.92
2022-09-23T02:28:57.374Z,2.08
2022-09-23T02:32:12.643Z,1.87
2022-09-23T02:35:18.144Z,1.70
2022-09-23T02:38:34.407Z,2.00
2022-09-23T02:41:52.092Z,2.30
2022-09-23T02:44:55.063Z,2.35
2022-09-23T02:48:04.031Z,2.30
2022-09-23T02:51:06.816Z,1.87
2022-09-23T02:54:14.959Z,2.22
2022-09-23T02:57:17.441Z,2.37
2022-09-23T03:00:20.610Z,2.20
2022-09-23T03:03:53.800Z,2.57
2022-09-23T03:07:02.563Z,2.65
2022-09-23T03:10:14.969Z,2.37
2022-09-23T03:13:48.068Z,3.10
2022-09-23T03:16:53.569Z,2.37
2022-09-23T03:20:34.248Z,2.50
2022-09-23T03:23:39.602Z,2.80
2022-09-23T03:26:45.800Z,2.17
2022-09-23T03:29:50.068Z,2.20
2022-09-23T03:32:53.332Z,2.80
2022-09-23T03:36:35.459Z,2.90
2022-09-23T03:40:03.255Z,2.40
2022-09-23T03:43:05.859Z,2.53
2022-09-23T03:46:08.750Z,2.30
2022-09-23T03:49:27.343Z,2.87
2022-09-23T03:52:30.340Z,2.90
2022-09-23T03:55:33.543Z,2.87
2022-09-23T03:58:36.329Z,2.60
2022-09-23T04:01:38.939Z,3.00
2022-09-23T04:04:41.975Z,2.28
2022-09-23T04:07:44.548Z,2.23
2022-09-23T04:10:49.798Z,3.00
2022-09-23T04:13:55.958Z,2.42
2022-09-23T04:16:58.982Z,2.42
2022-09-23T04:20:01.876Z,2.42
2022-09-23T04:23:04.840Z,2.30
2022-09-23T04:26:07.403Z,2.42
2022-09-23T04:29:11.495Z,2.33
2022-09-23T04:32:14.043Z,2.30
2022-09-23T04:35:17.117Z,2.42
2022-09-23T04:38:19.968Z,2.10
2022-09-23T04:41:23.066Z,2.08
2022-09-23T04:44:28.105Z,2.20
2022-09-23T04:47:32.164Z,2.17
2022-09-23T04:50:34.674Z,2.50
2022-09-23T04:53:39.903Z,2.10
2022-09-23T04:56:42.830Z,2.33
2022-09-23T04:59:47.128Z,2.58
2022-09-23T05:02:50.551Z,2.17
2022-09-23T05:05:54.633Z,2.40
2022-09-23T05:08:58.535Z,2.70
2022-09-23T05:12:02.132Z,2.22
2022-09-23T05:15:05.203Z,2.37
2022-09-23T05:18:07.967Z,2.05
2022-09-23T05:21:12.203Z,2.65
2022-09-23T05:24:16.723Z,2.57
2022-09-23T05:27:19.946Z,1.50
2022-09-23T05:30:22.914Z,1.67
2022-09-23T05:33:25.361Z,1.67
2022-09-23T05:36:32.124Z,1.87
2022-09-23T05:39:38.243Z,1.60
2022-09-23T05:42:41.220Z,1.58
2022-09-23T05:45:43.685Z,1.80
2022-09-23T05:48:47.391Z,1.77
2022-09-23T05:51:49.842Z,1.83
2022-09-23T05:54:52.718Z,1.73
2022-09-23T05:57:55.178Z,1.87
2022-09-23T06:00:58.046Z,2.15
2022-09-23T06:04:02.612Z,1.77
2022-09-23T06:07:05.476Z,1.80
2022-09-23T06:10:08.722Z,2.00
2022-09-23T06:13:11.990Z,1.90
2022-09-23T06:16:16.213Z,4.10
2022-09-23T06:19:19.271Z,4.70
2022-09-23T06:22:24.751Z,4.32
2022-09-23T06:25:27.209Z,4.43
2022-09-23T06:28:36.182Z,2.80
2022-09-23T06:31:41.243Z,2.28
2022-09-23T06:34:51.514Z,2.22
2022-09-23T06:37:54.983Z,2.20
2022-09-23T06:40:58.664Z,2.03
2022-09-23T06:44:01.307Z,2.28
2022-09-23T06:47:04.136Z,2.12
2022-09-23T06:50:07.715Z,2.20
2022-09-23T06:53:10.391Z,2.15
2022-09-23T06:56:12.950Z,1.67
2022-09-23T06:59:17.062Z,2.20
2022-09-23T07:02:19.691Z,3.65
2022-09-23T07:05:22.843Z,3.45
2022-09-23T07:08:27.263Z,4.20
2022-09-23T07:11:30.277Z,3.70
2022-09-23T07:14:32.861Z,2.28
2022-09-23T07:17:35.727Z,2.75
2022-09-23T07:20:38.415Z,2.40
2022-09-23T07:23:48.114Z,2.30
2022-09-23T07:26:50.575Z,2.13
2022-09-23T07:29:53.524Z,2.20
2022-09-23T07:32:56.074Z,2.40
2022-09-23T07:35:58.909Z,2.10
2022-09-23T07:39:03.404Z,2.20
2022-09-23T07:42:06.615Z,2.40
2022-09-23T07:45:09.333Z,2.40
2022-09-23T07:48:12.204Z,2.03
2022-09-23T07:51:20.417Z,2.20
2022-09-23T07:54:25.506Z,2.08
2022-09-23T07:57:27.983Z,1.90
2022-09-23T08:00:31.238Z,2.30
2022-09-23T08:03:35.118Z,2.15
2022-09-23T08:06:42.025Z,2.33
2022-09-23T08:09:45.426Z,1.92
2022-09-23T08:12:48.926Z,1.70
2022-09-23T08:15:55.325Z,1.87
2022-09-23T08:18:58.169Z,2.35
2022-09-23T08:22:00.938Z,1.95
2022-09-23T08:25:03.829Z,1.23
2022-09-23T08:28:07.214Z,1.93
2022-09-23T08:31:09.793Z,1.62
2022-09-23T08:34:13.342Z,1.50
2022-09-23T08:37:15.831Z,2.00
2022-09-23T08:40:19.116Z,1.25
2022-09-23T08:43:27.386Z,1.60
2022-09-23T08:46:37.693Z,1.52
2022-09-23T08:50:18.724Z,1.30
2022-09-23T08:53:26.234Z,1.12
2022-09-23T08:56:28.992Z,1.98
2022-09-23T08:59:37.186Z,1.70
2022-09-23T09:02:39.909Z,1.70
2022-09-23T09:05:50.884Z,1.20
2022-09-23T09:09:00.956Z,1.83
2022-09-23T09:12:52.864Z,2.10
2022-09-23T09:16:06.224Z,1.33
2022-09-23T09:19:17.167Z,1.77
2022-09-23T09:22:33.266Z,1.70
2022-09-23T09:25:49.543Z,1.48
2022-09-23T09:29:34.418Z,1.73
2022-09-23T09:33:04.931Z,1.77
2022-09-23T09:36:15.413Z,2.15
2022-09-23T09:39:21.857Z,1.92
2022-09-23T09:42:41.803Z,2.30
2022-09-23T09:46:17.600Z,1.60
2022-09-23T09:49:23.287Z,2.00
2022-09-23T09:52:28.815Z,2.17
2022-09-23T09:55:31.330Z,1.75
2022-09-23T09:58:41.660Z,2.12
2022-09-23T10:01:44.293Z,2.92
2022-09-23T10:04:55.347Z,2.00
2022-09-23T10:08:26.616Z,1.83
2022-09-23T10:11:30.005Z,1.85
2022-09-23T10:14:32.967Z,1.67
2022-09-23T10:17:36.368Z,1.62
2022-09-23T10:20:39.127Z,1.73
2022-09-23T10:23:44.772Z,1.40
2022-09-23T10:26:58.311Z,1.67
2022-09-23T10:30:06.213Z,1.90
2022-09-23T10:33:27.996Z,1.60
2022-09-23T10:36:32.719Z,1.80
2022-09-23T10:39:54.213Z,1.40
2022-09-23T10:43:53.571Z,1.45
2022-09-23T10:47:04.641Z,1.58
2022-09-23T10:50:20.785Z,1.73
2022-09-23T10:53:42.056Z,1.60
2022-09-23T10:57:28.315Z,2.08
2022-09-23T11:00:37.940Z,2.53
2022-09-23T11:03:52.274Z,2.10
2022-09-23T11:07:08.285Z,2.40
2022-09-23T11:10:45.465Z,1.73
2022-09-23T11:14:07.736Z,2.10
2022-09-23T11:17:51.744Z,1.77
2022-09-23T11:21:04.691Z,1.42
2022-09-23T11:24:12.194Z,5.70
2022-09-23T11:27:15.012Z,3.80
2022-09-23T11:30:21.168Z,1.65
2022-09-23T11:33:31.506Z,1.75
2022-09-23T11:36:41.574Z,1.70
2022-09-23T11:40:04.627Z,1.85
2022-09-23T11:43:18.762Z,1.50
2022-09-23T11:46:38.768Z,1.50
2022-09-23T11:49:48.732Z,1.70
2022-09-23T11:53:03.117Z,1.50
2022-09-23T11:56:12.675Z,1.77
2022-09-23T11:59:35.061Z,2.00
2022-09-23T12:03:18.515Z,2.20
2022-09-23T12:06:43.911Z,1.58
2022-09-23T12:10:03.616Z,1.80
2022-09-23T12:13:47.461Z,3.30
2022-09-23T12:16:56.098Z,5.33
2022-09-23T12:20:19.114Z,2.90
2022-09-23T12:23:27.729Z,3.25
2022-09-23T12:26:32.522Z,1.80
2022-09-23T12:29:35.315Z,2.15
2022-09-23T12:32:41.246Z,1.90
2022-09-23T12:35:45.809Z,2.03
2022-09-23T12:38:51.340Z,2.40
2022-09-23T12:41:58.749Z,2.22
2022-09-23T12:45:31.523Z,2.40
2022-09-23T12:48:48.153Z,2.17
2022-09-23T12:52:13.525Z,2.15
2022-09-23T12:55:24.590Z,1.90
2022-09-23T12:58:42.486Z,1.80
2022-09-23T13:01:45.135Z,2.65
2022-09-23T13:05:23.318Z,3.07
2022-09-23T13:08:29.118Z,2.37
2022-09-23T13:11:32.635Z,2.33
2022-09-23T13:14:37.864Z,1.70
2022-09-23T13:17:40.704Z,1.77
2022-09-23T13:20:43.163Z,1.60
2022-09-23T13:24:31.298Z,1.90
2022-09-23T13:27:34.242Z,1.65
2022-09-23T13:30:48.056Z,1.62
2022-09-23T13:33:54.595Z,2.30
2022-09-23T13:36:57.407Z,1.80
2022-09-23T13:40:24.014Z,1.62
2022-09-23T13:43:48.840Z,2.40
2022-09-23T13:46:54.553Z,2.05
2022-09-23T13:49:57.625Z,6.50
2022-09-23T13:53:04.108Z,3.43
2022-09-23T13:56:13.037Z,3.33
2022-09-23T13:59:21.731Z,3.20
2022-09-23T14:02:25.836Z,2.53
2022-09-23T14:05:35.491Z,2.62
2022-09-23T14:08:49.884Z,2.03
2022-09-23T14:11:53.480Z,1.73
2022-09-23T14:14:57.183Z,1.40
2022-09-23T14:18:06.377Z,1.45
2022-09-23T14:21:27.323Z,1.98
2022-09-23T14:24:30.111Z,1.57
2022-09-23T14:27:36.167Z,1.70
2022-09-23T14:30:39.065Z,1.80
2022-09-23T14:33:42.890Z,1.70
2022-09-23T14:37:08.822Z,1.60
2022-09-23T14:40:15.222Z,1.50
2022-09-23T14:43:28.607Z,2.35
2022-09-23T14:46:35.999Z,1.50
2022-09-23T14:49:58.759Z,1.80
2022-09-23T14:53:01.347Z,1.20
2022-09-23T14:56:07.154Z,1.00
2022-09-23T14:59:24.885Z,1.40
2022-09-23T15:02:39.319Z,1.50
2022-09-23T15:05:46.789Z,1.20
2022-09-23T15:08:54.619Z,1.55
2022-09-23T15:12:02.678Z,1.70
2022-09-23T15:15:06.112Z,1.52
2022-09-23T15:18:21.429Z,1.40
2022-09-23T15:21:25.886Z,1.40
2022-09-23T15:24:46.611Z,1.55
2022-09-23T15:28:25.243Z,1.50
2022-09-23T15:31:27.810Z,1.80
2022-09-23T15:34:31.948Z,1.50
2022-09-23T15:37:36.403Z,1.50
2022-09-23T15:40:40.446Z,1.55
2022-09-23T15:43:43.152Z,1.80
2022-09-23T15:46:47.073Z,1.50
2022-09-23T15:49:49.591Z,1.77
2022-09-23T15:52:52.450Z,1.30
2022-09-23T15:55:55.104Z,1.73
2022-09-23T15:58:58.053Z,1.63
2022-09-23T16:02:05.763Z,1.80
2022-09-23T16:05:26.640Z,1.77
2022-09-23T16:08:33.200Z,1.40
2022-09-23T16:11:38.258Z,1.65
2022-09-23T16:14:40.715Z,1.47
2022-09-23T16:17:44.795Z,1.45
2022-09-23T16:20:48.056Z,1.67
2022-09-23T16:23:51.507Z,1.17
2022-09-23T16:26:59.813Z,1.45
2022-09-23T16:30:03.280Z,1.40
2022-09-23T16:33:05.753Z,1.30
2022-09-23T16:36:14.028Z,1.48
2022-09-23T16:39:16.822Z,1.80
2022-09-23T16:42:19.654Z,1.83
2022-09-23T16:45:23.291Z,1.80
2022-09-23T16:48:26.104Z,1.90
2022-09-23T16:51:30.853Z,1.55
2022-09-23T16:54:37.341Z,1.50
2022-09-23T16:57:40.534Z,1.77
2022-09-23T17:01:01.602Z,2.20
2022-09-23T17:04:04.255Z,2.35
2022-09-23T17:07:07.066Z,2.30
2022-09-23T17:10:10.204Z,9.27
2022-09-23T17:13:15.741Z,7.75
2022-09-23T17:16:27.276Z,10.10
2022-09-23T17:19:30.184Z,16.60
2022-09-23T17:22:33.644Z,16.65
2022-09-23T17:25:36.444Z,11.40
2022-09-23T17:28:39.289Z,7.85
2022-09-23T17:31:42.729Z,6.50
2022-09-23T17:34:45.240Z,5.62
2022-09-23T17:37:48.060Z,4.53
2022-09-23T17:40:52.320Z,3.90
2022-09-23T17:43:57.159Z,3.20
2022-09-23T17:47:00.800Z,2.93
2022-09-23T17:50:04.025Z,2.85
2022-09-23T17:53:06.494Z,2.70
2022-09-23T17:56:20.024Z,2.87
2022-09-23T17:59:22.458Z,2.50
2022-09-23T18:02:25.579Z,3.00
2022-09-23T18:05:28.538Z,3.03
2022-09-23T18:08:31.348Z,5.72
2022-09-23T18:11:37.061Z,7.18
2022-09-23T18:14:39.754Z,4.90
2022-09-23T18:17:42.609Z,3.90
2022-09-23T18:20:45.129Z,2.92
2022-09-23T18:23:48.279Z,2.50
2022-09-23T18:26:51.072Z,2.72
2022-09-23T18:29:56.430Z,2.53
2022-09-23T18:32:59.825Z,2.00
2022-09-23T18:36:04.087Z,2.25
2022-09-23T18:39:07.002Z,2.10
2022-09-23T18:42:09.991Z,2.50
2022-09-23T18:45:12.602Z,2.30
2022-09-23T18:48:33.770Z,3.40
2022-09-23T18:51:38.686Z,3.22
2022-09-23T18:54:42.573Z,3.05
2022-09-23T18:57:47.808Z,3.45
2022-09-23T19:00:51.418Z,3.08
2022-09-23T19:03:58.416Z,4.07
2022-09-23T19:07:01.402Z,4.40
2022-09-23T19:10:04.484Z,4.60
2022-09-23T19:13:07.284Z,4.72
2022-09-23T19:16:16.695Z,4.43
2022-09-23T19:19:19.839Z,3.30
2022-09-23T19:22:22.350Z,3.47
2022-09-23T19:25:28.229Z,3.53
2022-09-23T19:28:31.054Z,3.47
2022-09-23T19:31:42.133Z,3.37
2022-09-23T19:34:45.845Z,3.37
2022-09-23T19:37:49.334Z,3.58
2022-09-23T19:40:52.204Z,3.28
2022-09-23T19:43:55.635Z,3.12
2022-09-23T19:46:58.169Z,2.80
2022-09-23T19:50:01.082Z,3.40
2022-09-23T19:53:07.473Z,3.62
2022-09-23T19:56:10.384Z,3.53
2022-09-23T19:59:17.764Z,2.97
2022-09-23T20:02:23.995Z,3.30
2022-09-23T20:05:30.050Z,3.10
2022-09-23T20:08:35.924Z,3.62
2022-09-23T20:11:38.875Z,3.75
2022-09-23T20:14:41.323Z,3.97
2022-09-23T20:17:44.438Z,4.15
2022-09-23T20:20:54.192Z,4.50
2022-09-23T20:23:57.901Z,4.15
2022-09-23T20:27:09.344Z,3.95
2022-09-23T20:30:12.446Z,3.67
2022-09-23T20:33:15.205Z,4.20
2022-09-23T20:36:18.482Z,4.33
2022-09-23T20:39:21.625Z,5.00
2022-09-23T20:42:24.518Z,4.90
2022-09-23T20:45:27.011Z,4.70
2022-09-23T20:48:30.919Z,4.47
2022-09-23T20:51:33.653Z,4.67
2022-09-23T20:54:38.868Z,4.45
2022-09-23T20:57:41.947Z,3.95
2022-09-23T21:00:44.982Z,4.40
2022-09-23T21:03:49.268Z,5.62
2022-09-23T21:06:52.181Z,5.07
2022-09-23T21:09:54.697Z,4.97
2022-09-23T21:12:57.698Z,4.68
2022-09-23T21:16:04.445Z,4.22
2022-09-23T21:19:08.035Z,4.57
2022-09-23T21:22:10.559Z,4.73
2022-09-23T21:25:27.355Z,4.93
2022-09-23T21:28:41.290Z,5.35
2022-09-23T21:31:44.214Z,4.87
2022-09-23T21:34:46.948Z,5.28
2022-09-23T21:37:49.781Z,5.80
2022-09-23T21:40:59.445Z,5.60
2022-09-23T21:44:04.619Z,4.60
2022-09-23T21:47:07.313Z,5.15
2022-09-23T21:50:10.251Z,5.20
2022-09-23T21:53:12.705Z,5.27
2022-09-23T21:56:21.704Z,5.57
2022-09-23T21:59:24.234Z,5.65
2022-09-23T22:02:27.755Z,8.60
2022-09-23T22:05:30.548Z,7.55
2022-09-23T22:08:36.824Z,6.80
2022-09-23T22:11:59.507Z,5.05
2022-09-23T22:15:02.074Z,4.93
2022-09-23T22:18:05.466Z,5.65
2022-09-23T22:21:08.165Z,5.12
2022-09-23T22:24:12.179Z,6.00
2022-09-23T22:27:16.963Z,5.18
2022-09-23T22:30:38.372Z,5.53
2022-09-23T22:33:40.851Z,5.25
2022-09-23T22:36:43.580Z,5.28
2022-09-23T22:39:46.301Z,5.03
2022-09-23T22:42:49.742Z,5.78
2022-09-23T22:45:52.200Z,5.65
2022-09-23T22:48:54.980Z,5.97
2022-09-23T22:51:57.543Z,6.30
2022-09-23T22:55:00.535Z,6.07
2022-09-23T22:58:21.206Z,6.03
2022-09-23T23:01:25.975Z,6.65
2022-09-23T23:04:29.836Z,6.93
2022-09-23T23:07:34.161Z,7.18
2022-09-23T23:10:37.372Z,7.73
2022-09-23T23:13:43.755Z,7.40
2022-09-23T23:16:47.004Z,7.78
2022-09-23T23:19:50.846Z,7.65
2022-09-23T23:22:53.441Z,7.62
2022-09-23T23:25:56.183Z,6.63
2022-09-23T23:28:59.688Z,7.35
2022-09-23T23:32:02.596Z,8.57
2022-09-23T23:35:06.111Z,7.85
2022-09-23T23:38:12.517Z,7.50
2022-09-23T23:41:17.292Z,7.80
2022-09-23T23:44:20.040Z,8.07
2022-09-23T23:47:23.376Z,7.97
2022-09-23T23:50:26.502Z,6.70
2022-09-23T23:53:30.840Z,7.18
2022-09-23T23:56:33.584Z,7.57
2022-09-23T23:59:36.003Z,8.23
